Other Surface Observations
Issued by NWS Great Falls, MT

Home | Current Version | Previous Version | Text Only | Print | Product List | Glossary On
Versions: 1 2 3 4 5 6 7 8 9 10 11 12 13 14 15 16 17 18 19 20 21 22 23 24 25 26 27 28 29 30 31 32 33 34 35 36 37 38 39 40 41 42 43 44 45 46 47 48 49 50
000
SXUS55 KTFX 241553
OSOTFX
AREA AWOS OBSERVATIONS
NATIONAL WEATHER SERVICE GREAT FALLS MT
0950 AM MDT SUN MAY 24 2015

METAR KPWD 241545Z AUTO 06010KT 10SM 22/03 A3004 RMK PLENTYWOOD
METAR KPO1 241545Z AUTO 00000KT 19/08 A3005 RMK POPLAR
METAR K1S3 241545Z AUTO 08008KT 10SM 13/11 A3002 RMK FORSYTH
METAR KS71 241545Z AUTO 00000KT 10SM 17/08 A3007 RMK CHINOOK
METAR K6S0 241545Z AUTO 05005KT 1SM 08/08 A3008 RMK BIG TIMBER
METAR K79S 241545Z AUTO 00000KT 10SM 13/11 A3010 RMK FORT BENTON
METAR K38S 241545Z AUTO 35007KT 10SM 11/05 A3012 RMK DEER LODGE
METAR K3U3 241545Z AUTO 35009G14KT 10SM 11/04 A3008 RMK ANACONDA
METAR K6S5 241545Z AUTO 33007KT 10SM 14/06 A3004 RMK HAMILTON
METAR KS59 241545Z AUTO 36003KT 10SM 16/04 A3004 RMK LIBBY
METAR K88M 241545Z AUTO 02003KT 10SM 17/02 A3005 RMK EUREKA



USA.gov is the U.S. government's official web portal to all federal, state and local government web resources and services.